createdAt,value
2019-02-03T00:00:50.379Z,96.80
2019-02-03T00:01:50.363Z,103.80
2019-02-03T00:02:50.352Z,97.30
2019-02-03T00:03:50.333Z,91.80
2019-02-03T00:04:50.319Z,102.20
2019-02-03T00:05:50.311Z,99.90
2019-02-03T00:06:50.297Z,99.80
2019-02-03T00:07:50.289Z,100.90
2019-02-03T00:08:50.276Z,95.30
2019-02-03T00:09:50.264Z,93.70
2019-02-03T00:10:50.252Z,95.50
2019-02-03T00:11:50.234Z,100.10
2019-02-03T00:12:50.222Z,90.40
2019-02-03T00:13:50.214Z,102.30
2019-02-03T00:14:50.201Z,97.30
2019-02-03T00:15:50.185Z,97.00
2019-02-03T00:16:50.171Z,98.10
2019-02-03T00:17:50.155Z,98.70
2019-02-03T00:18:50.148Z,105.10
2019-02-03T00:19:50.137Z,92.30
2019-02-03T00:20:50.124Z,103.00
2019-02-03T00:21:50.110Z,91.90
2019-02-03T00:22:50.099Z,93.50
2019-02-03T00:23:50.081Z,90.10
2019-02-03T00:24:50.066Z,88.10
2019-02-03T00:25:50.058Z,88.30
2019-02-03T00:26:50.043Z,90.20
2019-02-03T00:27:50.036Z,88.60
2019-02-03T00:28:50.024Z,94.20
2019-02-03T00:29:50.004Z,94.20
2019-02-03T00:30:49.993Z,89.90
2019-02-03T00:31:49.983Z,90.90
2019-02-03T00:32:51.772Z,92.80
2019-02-03T00:33:49.958Z,93.00
2019-02-03T00:34:49.943Z,92.00
2019-02-03T00:35:49.924Z,93.80
2019-02-03T00:36:49.912Z,94.40
2019-02-03T00:37:49.934Z,101.70
2019-02-03T00:38:49.952Z,88.70
2019-02-03T00:39:49.880Z,93.50
2019-02-03T00:40:49.868Z,89.10
2019-02-03T00:41:49.965Z,98.90
2019-02-03T00:42:49.838Z,100.80
2019-02-03T00:43:49.825Z,94.30
2019-02-03T00:44:49.808Z,105.30
2019-02-03T00:45:49.800Z,99.80
2019-02-03T00:46:49.787Z,97.20
2019-02-03T00:47:49.769Z,93.50
2019-02-03T00:48:49.757Z,96.90
2019-02-03T00:49:49.746Z,93.80
2019-02-03T00:50:49.733Z,89.20
2019-02-03T00:51:49.724Z,91.90
2019-02-03T00:52:49.710Z,96.20
2019-02-03T00:53:49.699Z,95.40
2019-02-03T00:54:49.684Z,97.40
2019-02-03T00:55:49.667Z,103.80
2019-02-03T00:56:49.654Z,95.60
2019-02-03T00:57:49.638Z,113.00
2019-02-03T00:58:49.626Z,105.20
2019-02-03T00:59:49.617Z,100.70
2019-02-03T01:00:49.605Z,107.50
2019-02-03T01:01:49.584Z,104.70
2019-02-03T01:02:49.571Z,107.80
2019-02-03T01:03:49.563Z,102.10
2019-02-03T01:04:49.549Z,108.20
2019-02-03T01:05:49.540Z,103.90
2019-02-03T01:06:49.526Z,97.40
2019-02-03T01:07:49.513Z,105.20
2019-02-03T01:08:49.496Z,101.70
2019-02-03T01:09:49.485Z,96.70
2019-02-03T01:10:49.468Z,102.20
2019-02-03T01:11:49.460Z,104.10
2019-02-03T01:12:49.446Z,106.30
2019-02-03T01:13:49.434Z,104.50
2019-02-03T01:14:49.418Z,100.90
2019-02-03T01:15:49.401Z,101.50
2019-02-03T01:16:49.385Z,99.10
2019-02-03T01:17:49.377Z,96.50
2019-02-03T01:18:49.364Z,101.50
2019-02-03T01:19:49.349Z,98.90
2019-02-03T01:20:49.335Z,94.00
2019-02-03T01:21:49.325Z,100.40
2019-02-03T01:22:49.310Z,95.30
2019-02-03T01:23:49.304Z,97.70
2019-02-03T01:24:49.289Z,104.40
2019-02-03T01:25:49.273Z,102.10
2019-02-03T01:26:49.261Z,92.20
2019-02-03T01:27:49.244Z,95.00
2019-02-03T01:28:49.232Z,97.70
2019-02-03T01:29:49.214Z,95.20
2019-02-03T01:30:49.202Z,96.80
2019-02-03T01:31:49.417Z,102.30
2019-02-03T01:32:49.177Z,99.30
2019-02-03T01:33:49.160Z,94.30
2019-02-03T01:34:49.149Z,104.90
2019-02-03T01:35:49.140Z,110.90
2019-02-03T01:36:49.125Z,106.20
2019-02-03T01:37:49.115Z,104.50
2019-02-03T01:38:49.101Z,111.90
2019-02-03T01:39:49.084Z,103.90
2019-02-03T01:40:49.201Z,104.90
2019-02-03T01:41:49.054Z,106.20
2019-02-03T01:42:49.041Z,113.70
2019-02-03T01:43:49.033Z,108.40
2019-02-03T01:44:49.022Z,110.30
2019-02-03T01:45:49.008Z,106.70
2019-02-03T01:46:48.995Z,110.90
2019-02-03T01:47:48.978Z,113.30
2019-02-03T01:48:48.963Z,113.80
2019-02-03T01:49:48.954Z,106.30
2019-02-03T01:50:48.942Z,111.40
2019-02-03T01:51:48.924Z,116.40
2019-02-03T01:52:48.910Z,118.50
2019-02-03T01:53:48.894Z,121.40
2019-02-03T01:54:48.883Z,120.00
2019-02-03T01:55:48.873Z,122.30
2019-02-03T01:56:48.860Z,128.80
2019-02-03T01:57:48.847Z,123.60
2019-02-03T01:58:48.833Z,122.50
2019-02-03T01:59:48.817Z,121.80
2019-02-03T02:00:48.801Z,124.20
2019-02-03T02:01:48.793Z,140.60
2019-02-03T02:02:48.777Z,139.30
2019-02-03T02:03:48.771Z,132.30
2019-02-03T02:04:48.754Z,133.30
2019-02-03T02:05:48.737Z,133.10
2019-02-03T02:06:48.724Z,137.80
2019-02-03T02:07:51.540Z,136.00
2019-02-03T02:08:48.703Z,129.40
2019-02-03T02:09:48.688Z,135.80
2019-02-03T02:10:48.672Z,136.30
2019-02-03T02:11:48.654Z,130.50
2019-02-03T02:12:48.639Z,128.60
2019-02-03T02:13:48.631Z,128.80
2019-02-03T02:14:48.616Z,140.10
2019-02-03T02:15:48.605Z,130.90
2019-02-03T02:16:48.593Z,139.60
2019-02-03T02:17:48.583Z,126.40
2019-02-03T02:18:48.567Z,131.40
2019-02-03T02:19:48.549Z,142.60
2019-02-03T02:20:48.536Z,128.50
2019-02-03T02:21:48.529Z,122.30
2019-02-03T02:22:48.514Z,136.50
2019-02-03T02:23:48.498Z,126.40
2019-02-03T02:24:48.486Z,125.60
2019-02-03T02:25:48.468Z,125.30
2019-02-03T02:26:48.453Z,127.40
2019-02-03T02:27:48.446Z,135.00
2019-02-03T02:28:48.434Z,129.40
2019-02-03T02:29:48.420Z,123.70
2019-02-03T02:30:48.407Z,123.80
2019-02-03T02:31:48.390Z,116.80
2019-02-03T02:32:48.376Z,129.20
2019-02-03T02:33:48.366Z,137.80
2019-02-03T02:34:48.351Z,120.60
2019-02-03T02:35:48.343Z,130.60
2019-02-03T02:36:48.329Z,128.10
2019-02-03T02:37:48.317Z,118.00
2019-02-03T02:38:48.312Z,117.50
2019-02-03T02:39:48.292Z,123.80
2019-02-03T02:40:48.278Z,117.30
2019-02-03T02:41:48.261Z,118.80
2019-02-03T02:42:48.252Z,127.30
2019-02-03T02:43:48.232Z,120.30
2019-02-03T02:44:48.216Z,118.40
2019-02-03T02:45:48.295Z,122.40
2019-02-03T02:46:48.197Z,125.50
2019-02-03T02:47:48.183Z,127.50
2019-02-03T02:48:48.169Z,118.00
2019-02-03T02:49:48.152Z,116.20
2019-02-03T02:50:48.141Z,128.20
2019-02-03T02:51:48.132Z,121.20
2019-02-03T02:52:48.119Z,125.30
2019-02-03T02:53:48.101Z,120.70
2019-02-03T02:54:48.088Z,115.80
2019-02-03T02:55:48.085Z,126.60
2019-02-03T02:56:48.070Z,123.30
2019-02-03T02:57:48.056Z,123.60
2019-02-03T02:58:48.070Z,122.20
2019-02-03T02:59:48.027Z,124.30
2019-02-03T03:00:48.018Z,123.20
2019-02-03T03:01:47.999Z,122.10
2019-02-03T03:02:47.993Z,115.80
2019-02-03T03:03:47.978Z,120.80
2019-02-03T03:04:47.964Z,114.70
2019-02-03T03:05:47.949Z,116.90
2019-02-03T03:06:47.937Z,114.40
2019-02-03T03:07:47.928Z,121.40
2019-02-03T03:08:47.905Z,129.40
2019-02-03T03:09:47.900Z,124.90
2019-02-03T03:10:47.886Z,117.40
2019-02-03T03:11:47.867Z,118.30
2019-02-03T03:12:48.023Z,114.20
2019-02-03T03:13:47.844Z,119.30
2019-02-03T03:14:47.834Z,113.80
2019-02-03T03:15:47.824Z,115.00
2019-02-03T03:16:47.811Z,116.40
2019-02-03T03:17:47.796Z,113.90
2019-02-03T03:18:47.785Z,119.60
2019-02-03T03:19:47.766Z,117.40
2019-02-03T03:20:47.755Z,112.40
2019-02-03T03:21:47.738Z,115.60
2019-02-03T03:22:47.729Z,106.30
2019-02-03T03:23:47.717Z,114.10
2019-02-03T03:24:47.705Z,120.20
2019-02-03T03:25:47.685Z,109.00
2019-02-03T03:26:47.674Z,110.20
2019-02-03T03:27:47.668Z,118.60
2019-02-03T03:28:47.652Z,114.30
2019-02-03T03:29:47.642Z,115.10
2019-02-03T03:30:47.630Z,122.40
2019-02-03T03:31:47.630Z,109.90
2019-02-03T03:32:47.611Z,111.10
2019-02-03T03:33:47.587Z,120.40
2019-02-03T03:34:47.573Z,119.30
2019-02-03T03:35:47.565Z,111.70
2019-02-03T03:36:47.553Z,114.50
2019-02-03T03:37:47.539Z,108.10
2019-02-03T03:38:47.525Z,114.00
2019-02-03T03:39:47.509Z,105.20
2019-02-03T03:40:47.492Z,112.90
2019-02-03T03:41:47.484Z,115.50
2019-02-03T03:42:47.475Z,113.50
2019-02-03T03:43:47.453Z,113.00
2019-02-03T03:44:47.441Z,117.40
2019-02-03T03:45:47.432Z,112.70
2019-02-03T03:46:47.419Z,114.30
2019-02-03T03:47:47.410Z,106.40
2019-02-03T03:48:47.397Z,114.50
2019-02-03T03:49:47.386Z,109.10
2019-02-03T03:50:47.369Z,120.20
2019-02-03T03:51:47.351Z,122.90
2019-02-03T03:52:47.338Z,112.90
2019-02-03T03:53:47.328Z,119.80
2019-02-03T03:54:47.316Z,117.30
2019-02-03T03:55:47.308Z,111.10
2019-02-03T03:56:47.292Z,111.10
2019-02-03T03:57:47.277Z,117.30
2019-02-03T03:58:47.266Z,119.50
2019-02-03T03:59:47.257Z,120.80
2019-02-03T04:00:47.244Z,115.10
2019-02-03T04:01:47.227Z,114.50
2019-02-03T04:02:47.215Z,111.10
2019-02-03T04:03:47.198Z,110.60
2019-02-03T04:04:47.184Z,120.60
2019-02-03T04:05:47.172Z,109.40
2019-02-03T04:06:47.159Z,112.80
2019-02-03T04:07:47.154Z,109.20
2019-02-03T04:08:47.139Z,111.50
2019-02-03T04:09:47.127Z,107.10
2019-02-03T04:10:47.115Z,106.00
2019-02-03T04:11:47.101Z,101.10
2019-02-03T04:12:47.086Z,109.30
2019-02-03T04:13:47.077Z,107.80
2019-02-03T04:14:47.064Z,112.10
2019-02-03T04:15:47.045Z,109.30
2019-02-03T04:16:47.033Z,113.10
2019-02-03T04:17:47.019Z,108.60
2019-02-03T04:18:47.007Z,110.60
2019-02-03T04:19:47.000Z,107.20
2019-02-03T04:20:46.983Z,108.50
2019-02-03T04:21:46.975Z,97.50
2019-02-03T04:22:46.963Z,105.00
2019-02-03T04:23:46.941Z,118.50
2019-02-03T04:24:46.927Z,107.40
2019-02-03T04:25:46.920Z,102.80
2019-02-03T04:26:46.906Z,109.00
2019-02-03T04:27:46.899Z,104.40
2019-02-03T04:28:46.885Z,114.80
2019-02-03T04:29:46.866Z,102.00
2019-02-03T04:30:46.853Z,108.50
2019-02-03T04:31:46.847Z,102.40
2019-02-03T04:32:46.832Z,105.50
2019-02-03T04:33:46.817Z,105.10
2019-02-03T04:34:46.807Z,103.50
2019-02-03T04:35:46.788Z,106.30
2019-02-03T04:36:46.774Z,109.50
2019-02-03T04:37:46.766Z,108.20
2019-02-03T04:38:57.759Z,102.70
2019-02-03T04:39:46.740Z,96.70
2019-02-03T04:40:46.728Z,109.70
2019-02-03T04:41:46.718Z,99.60
2019-02-03T04:42:46.844Z,99.70
2019-02-03T04:43:46.685Z,95.10
2019-02-03T04:44:46.673Z,109.80
2019-02-03T04:45:46.665Z,106.50
2019-02-03T04:46:46.652Z,90.30
2019-02-03T04:47:46.636Z,104.90
2019-02-03T04:48:46.622Z,96.70
2019-02-03T04:49:46.607Z,106.10
2019-02-03T04:50:46.595Z,100.30
2019-02-03T04:51:46.587Z,96.40
2019-02-03T04:52:46.573Z,101.40
2019-02-03T04:53:46.561Z,98.90
2019-02-03T04:54:46.550Z,98.00
2019-02-03T04:55:46.533Z,100.50
2019-02-03T04:56:46.681Z,104.20
2019-02-03T04:57:46.503Z,106.50
2019-02-03T04:58:46.492Z,102.90
2019-02-03T04:59:46.483Z,106.40
2019-02-03T05:00:46.471Z,100.60
2019-02-03T05:01:46.451Z,105.70
2019-02-03T05:02:46.440Z,111.90
2019-02-03T05:03:46.432Z,105.20
2019-02-03T05:04:46.418Z,113.80
2019-02-03T05:05:46.409Z,115.20
2019-02-03T05:06:46.396Z,107.00
2019-02-03T05:07:46.381Z,108.10
2019-02-03T05:08:46.365Z,111.50
2019-02-03T05:09:46.351Z,110.10
2019-02-03T05:10:46.340Z,110.20
2019-02-03T05:11:46.352Z,117.10
2019-02-03T05:12:46.438Z,109.00
2019-02-03T05:13:46.305Z,117.70
2019-02-03T05:14:46.290Z,106.60
2019-02-03T05:15:46.276Z,104.80
2019-02-03T05:16:46.262Z,106.10
2019-02-03T05:17:46.258Z,114.00
2019-02-03T05:18:46.240Z,104.20
2019-02-03T05:19:46.222Z,109.10
2019-02-03T05:20:46.209Z,106.90
2019-02-03T05:21:46.198Z,110.80
2019-02-03T05:22:46.186Z,106.80
2019-02-03T05:23:46.177Z,113.90
2019-02-03T05:24:46.166Z,115.30
2019-02-03T05:25:46.151Z,119.50
2019-02-03T05:26:46.138Z,114.90
2019-02-03T05:27:46.124Z,117.10
2019-02-03T05:28:46.120Z,122.70
2019-02-03T05:29:46.092Z,116.80
2019-02-03T05:30:46.081Z,127.00
2019-02-03T05:31:46.070Z,125.70
2019-02-03T05:32:46.057Z,121.20
2019-02-03T05:33:46.039Z,120.20
2019-02-03T05:34:46.026Z,108.90
2019-02-03T05:35:46.166Z,109.70
2019-02-03T05:36:46.007Z,118.20
2019-02-03T05:37:45.994Z,107.30
2019-02-03T05:38:45.981Z,112.70
2019-02-03T05:39:45.967Z,109.90
2019-02-03T05:40:45.950Z,106.30
2019-02-03T05:41:45.938Z,104.10
2019-02-03T05:42:46.121Z,112.30
2019-02-03T05:43:45.915Z,107.80
2019-02-03T05:44:45.902Z,97.90
2019-02-03T05:45:45.887Z,102.00
2019-02-03T05:46:45.873Z,109.00
2019-02-03T05:47:45.857Z,100.40
2019-02-03T05:48:45.841Z,96.20
2019-02-03T05:49:45.833Z,95.90
2019-02-03T05:50:45.821Z,96.50
2019-02-03T05:51:45.805Z,100.00
2019-02-03T05:52:45.791Z,98.40
2019-02-03T05:53:45.780Z,96.10
2019-02-03T05:54:45.769Z,86.90
2019-02-03T05:55:45.758Z,100.50
2019-02-03T05:56:45.745Z,97.50
2019-02-03T05:57:45.730Z,95.20
2019-02-03T05:58:45.718Z,99.60
2019-02-03T05:59:45.700Z,91.70
2019-02-03T06:00:45.687Z,99.40
2019-02-03T06:01:45.676Z,96.40
2019-02-03T06:02:45.661Z,98.70
2019-02-03T06:03:45.654Z,93.80
2019-02-03T06:04:45.639Z,95.40
2019-02-03T06:05:45.626Z,97.30
2019-02-03T06:06:45.612Z,102.60
2019-02-03T06:07:45.604Z,105.60
2019-02-03T06:08:45.590Z,102.50
2019-02-03T06:09:45.573Z,99.50
2019-02-03T06:10:45.560Z,90.80
2019-02-03T06:11:45.553Z,99.60
2019-02-03T06:12:45.530Z,98.20
2019-02-03T06:13:45.517Z,98.10
2019-02-03T06:14:45.512Z,93.90
2019-02-03T06:15:45.504Z,97.20
2019-02-03T06:16:45.483Z,94.50
2019-02-03T06:17:45.473Z,91.30
2019-02-03T06:18:45.459Z,88.10
2019-02-03T06:19:45.442Z,89.40
2019-02-03T06:20:45.429Z,98.90
2019-02-03T06:21:45.421Z,91.80
2019-02-03T06:22:45.408Z,98.90
2019-02-03T06:23:45.401Z,98.00
2019-02-03T06:24:45.377Z,103.60
2019-02-03T06:25:45.363Z,94.90
2019-02-03T06:26:45.351Z,91.70
2019-02-03T06:27:45.340Z,97.70
2019-02-03T06:28:45.327Z,92.50
2019-02-03T06:29:45.315Z,104.70
2019-02-03T06:30:45.302Z,98.20
2019-02-03T06:31:45.285Z,92.00
2019-02-03T06:32:45.271Z,102.60
2019-02-03T06:33:45.263Z,96.30
2019-02-03T06:34:45.254Z,88.30
2019-02-03T06:35:45.240Z,101.00
2019-02-03T06:36:45.226Z,96.70
2019-02-03T06:37:45.210Z,96.20
2019-02-03T06:38:45.198Z,102.30
2019-02-03T06:39:48.609Z,96.90
2019-02-03T06:40:45.175Z,104.80
2019-02-03T06:41:45.159Z,105.90
2019-02-03T06:42:45.146Z,103.60
2019-02-03T06:43:45.131Z,110.80
2019-02-03T06:44:45.118Z,106.80
2019-02-03T06:45:45.106Z,108.30
2019-02-03T06:46:45.090Z,111.90
2019-02-03T06:47:45.080Z,104.40
2019-02-03T06:48:45.067Z,110.90
2019-02-03T06:49:45.061Z,109.10
2019-02-03T06:50:45.044Z,121.40
2019-02-03T06:51:45.028Z,119.00
2019-02-03T06:52:45.013Z,110.80
2019-02-03T06:53:45.029Z,112.10
2019-02-03T06:54:44.991Z,98.30
2019-02-03T06:55:44.975Z,111.30
2019-02-03T06:56:44.964Z,114.10
2019-02-03T06:57:44.943Z,114.70
2019-02-03T06:58:44.931Z,117.90
2019-02-03T06:59:51.139Z,123.00
2019-02-03T07:00:44.968Z,108.40
2019-02-03T07:01:44.896Z,117.20
2019-02-03T07:02:44.882Z,108.70
2019-02-03T07:03:44.865Z,110.50
2019-02-03T07:04:44.852Z,107.70
2019-02-03T07:05:44.972Z,111.60
2019-02-03T07:06:44.826Z,111.10
2019-02-03T07:07:44.819Z,113.40
2019-02-03T07:08:44.804Z,118.80
2019-02-03T07:09:44.787Z,111.90
2019-02-03T07:10:44.773Z,112.40
2019-02-03T07:11:44.765Z,110.10
2019-02-03T07:12:44.750Z,114.30
2019-02-03T07:13:44.735Z,113.10
2019-02-03T07:14:44.723Z,112.40
2019-02-03T07:15:44.704Z,105.80
2019-02-03T07:16:44.690Z,112.90
2019-02-03T07:17:44.674Z,104.60
2019-02-03T07:18:44.662Z,109.10
2019-02-03T07:19:44.652Z,108.60
2019-02-03T07:20:44.640Z,114.00
2019-02-03T07:21:44.628Z,111.70
2019-02-03T07:22:44.615Z,105.80
2019-02-03T07:23:44.598Z,95.30
2019-02-03T07:24:44.582Z,120.00
2019-02-03T07:25:44.573Z,106.70
2019-02-03T07:26:44.560Z,115.20
2019-02-03T07:27:44.543Z,121.00
2019-02-03T07:28:44.526Z,105.90
2019-02-03T07:29:44.512Z,123.50
2019-02-03T07:30:44.498Z,112.00
2019-02-03T07:31:44.489Z,119.70
2019-02-03T07:32:44.474Z,111.10
2019-02-03T07:33:44.459Z,109.50
2019-02-03T07:34:44.447Z,114.50
2019-02-03T07:35:44.431Z,105.90
2019-02-03T07:36:44.416Z,117.90
2019-02-03T07:37:44.403Z,115.80
2019-02-03T07:38:44.393Z,99.10
2019-02-03T07:39:44.383Z,118.30
2019-02-03T07:40:44.369Z,111.60
2019-02-03T07:41:44.348Z,106.20
2019-02-03T07:42:44.334Z,110.40
2019-02-03T07:43:44.326Z,97.30
2019-02-03T07:44:44.313Z,108.40
2019-02-03T07:45:44.294Z,105.90
2019-02-03T07:46:44.281Z,113.10
2019-02-03T07:47:44.263Z,100.40
2019-02-03T07:48:44.249Z,100.10
2019-02-03T07:49:44.237Z,96.50
2019-02-03T07:50:44.222Z,91.30
2019-02-03T07:51:44.213Z,93.10
2019-02-03T07:52:44.202Z,93.80
2019-02-03T07:53:44.187Z,90.70
2019-02-03T07:54:44.175Z,80.40
2019-02-03T07:55:44.157Z,81.70
2019-02-03T07:56:44.142Z,81.80
2019-02-03T07:57:44.133Z,76.50
2019-02-03T07:58:44.119Z,70.20
2019-02-03T07:59:44.108Z,67.90
2019-02-03T08:00:44.087Z,67.90
2019-02-03T08:01:44.070Z,70.60
2019-02-03T08:02:44.056Z,66.90
2019-02-03T08:03:44.050Z,64.10
2019-02-03T08:04:44.035Z,59.00
2019-02-03T08:05:44.024Z,60.40
2019-02-03T08:06:44.013Z,55.10
2019-02-03T08:07:43.994Z,58.80
2019-02-03T08:08:43.982Z,55.20
2019-02-03T08:09:43.966Z,51.10
2019-02-03T08:10:43.953Z,53.40
2019-02-03T08:11:43.947Z,51.80
2019-02-03T08:12:43.933Z,49.80
2019-02-03T08:13:43.917Z,49.50
2019-02-03T08:14:43.903Z,49.40
2019-02-03T08:15:43.898Z,46.30
2019-02-03T08:16:43.884Z,50.60
2019-02-03T08:17:43.877Z,44.40
2019-02-03T08:18:43.865Z,45.40
2019-02-03T08:19:43.848Z,40.70
2019-02-03T08:20:43.838Z,42.20
2019-02-03T08:21:43.827Z,42.10
2019-02-03T08:22:43.816Z,41.70
2019-02-03T08:23:43.810Z,41.10
2019-02-03T08:24:43.800Z,41.70
2019-02-03T08:25:43.788Z,42.80
2019-02-03T08:26:43.781Z,41.40
2019-02-03T08:27:43.768Z,42.20
2019-02-03T08:28:43.753Z,39.10
2019-02-03T08:29:43.749Z,39.10
2019-02-03T08:30:43.741Z,37.60
2019-02-03T08:31:43.726Z,39.20
2019-02-03T08:32:43.722Z,37.70
2019-02-03T08:33:43.711Z,33.20
2019-02-03T08:34:43.702Z,36.40
2019-02-03T08:35:43.705Z,31.60
2019-02-03T08:36:43.688Z,32.60
2019-02-03T08:37:43.824Z,35.10
2019-02-03T08:38:43.676Z,35.00
2019-02-03T08:39:43.663Z,32.50
2019-02-03T08:40:43.653Z,28.90
2019-02-03T08:41:43.641Z,33.50
2019-02-03T08:42:43.635Z,32.20
2019-02-03T08:43:43.632Z,31.40
2019-02-03T08:44:43.630Z,31.90
2019-02-03T08:45:43.612Z,30.20
2019-02-03T08:46:43.609Z,28.60
2019-02-03T08:47:45.503Z,23.50
2019-02-03T08:48:43.600Z,30.10
2019-02-03T08:49:43.593Z,29.80
2019-02-03T08:50:43.624Z,31.80
2019-02-03T08:51:43.581Z,26.30
2019-02-03T08:52:43.573Z,26.40
2019-02-03T08:53:43.566Z,27.30
2019-02-03T08:54:50.879Z,25.10
2019-02-03T08:55:43.560Z,29.70
2019-02-03T08:56:43.554Z,27.20
2019-02-03T08:57:43.548Z,28.60
2019-02-03T08:58:43.548Z,27.30
2019-02-03T08:59:43.534Z,26.30
2019-02-03T09:00:43.528Z,25.50
2019-02-03T09:01:43.531Z,22.00
2019-02-03T09:02:43.529Z,23.90
2019-02-03T09:03:43.517Z,26.30
2019-02-03T09:04:43.514Z,23.40
2019-02-03T09:05:43.578Z,28.20
2019-02-03T09:06:43.513Z,23.10
2019-02-03T09:07:43.511Z,23.80
2019-02-03T09:08:43.507Z,23.00
2019-02-03T09:09:43.502Z,22.80
2019-02-03T09:10:48.631Z,24.90
2019-02-03T09:11:43.495Z,23.50
2019-02-03T09:12:43.490Z,20.70
2019-02-03T09:13:43.490Z,28.00
2019-02-03T09:14:43.486Z,21.60
2019-02-03T09:15:43.491Z,23.60
2019-02-03T09:16:43.486Z,20.20
2019-02-03T09:17:43.480Z,21.90
2019-02-03T09:18:43.477Z,21.60
2019-02-03T09:19:43.479Z,20.10
2019-02-03T09:20:43.475Z,19.20
2019-02-03T09:21:43.471Z,20.50
2019-02-03T09:22:43.470Z,21.10
2019-02-03T09:23:43.462Z,20.70
2019-02-03T09:24:43.458Z,26.90
2019-02-03T09:25:43.455Z,21.30
2019-02-03T09:26:43.454Z,23.40
2019-02-03T09:27:43.456Z,22.30
2019-02-03T09:28:43.451Z,20.40
2019-02-03T09:29:43.450Z,21.80
2019-02-03T09:30:43.447Z,18.40
2019-02-03T09:31:43.441Z,18.50
2019-02-03T09:32:43.444Z,17.70
2019-02-03T09:33:43.440Z,19.90
2019-02-03T09:34:43.438Z,16.80
2019-02-03T09:35:43.433Z,18.70
2019-02-03T09:36:43.429Z,17.80
2019-02-03T09:37:43.428Z,16.00
2019-02-03T09:38:43.424Z,19.80
2019-02-03T09:39:43.429Z,17.10
2019-02-03T09:40:43.425Z,19.90
2019-02-03T09:41:43.425Z,16.90
2019-02-03T09:42:43.425Z,24.60
2019-02-03T09:43:43.418Z,19.50
2019-02-03T09:44:43.417Z,18.00
2019-02-03T09:45:43.427Z,19.50
2019-02-03T09:46:43.421Z,17.50
2019-02-03T09:47:43.426Z,17.30
2019-02-03T09:48:43.422Z,16.60
2019-02-03T09:49:43.425Z,19.90
2019-02-03T09:50:43.420Z,17.70
2019-02-03T09:51:43.425Z,16.70
2019-02-03T09:52:43.432Z,16.10
2019-02-03T09:53:43.423Z,17.50
2019-02-03T09:54:43.425Z,16.90
2019-02-03T09:55:43.421Z,15.90
2019-02-03T09:56:43.421Z,14.70
2019-02-03T09:57:43.422Z,16.40
2019-02-03T09:58:43.424Z,16.30
2019-02-03T09:59:43.428Z,14.70
2019-02-03T10:00:43.430Z,21.30
2019-02-03T10:01:43.434Z,15.00
2019-02-03T10:02:43.436Z,16.00
2019-02-03T10:03:43.434Z,17.40
2019-02-03T10:04:43.435Z,14.40
2019-02-03T10:05:43.441Z,15.50
2019-02-03T10:06:43.443Z,15.80
2019-02-03T10:07:43.441Z,19.30
2019-02-03T10:08:43.451Z,18.50
2019-02-03T10:09:43.442Z,17.50
2019-02-03T10:10:43.443Z,16.80
2019-02-03T10:11:43.452Z,16.10
2019-02-03T10:12:43.452Z,14.90
2019-02-03T10:13:43.458Z,17.30
2019-02-03T10:14:43.461Z,15.80
2019-02-03T10:15:43.458Z,14.00
2019-02-03T10:16:43.458Z,17.60
2019-02-03T10:17:43.457Z,14.00
2019-02-03T10:18:43.461Z,15.40
2019-02-03T10:19:43.471Z,12.50
2019-02-03T10:20:43.469Z,13.40
2019-02-03T10:21:43.469Z,14.90
2019-02-03T10:22:43.470Z,13.30
2019-02-03T10:23:43.476Z,15.30
2019-02-03T10:24:43.478Z,16.10
2019-02-03T10:25:43.483Z,14.20
2019-02-03T10:26:43.487Z,13.90
2019-02-03T10:27:43.482Z,15.00
2019-02-03T10:28:43.484Z,12.40
2019-02-03T10:29:43.490Z,14.80
2019-02-03T10:30:43.493Z,12.70
2019-02-03T10:31:43.496Z,12.50
2019-02-03T10:32:43.499Z,12.70
2019-02-03T10:33:43.498Z,13.50
2019-02-03T10:34:43.498Z,11.90
2019-02-03T10:35:43.495Z,13.30
2019-02-03T10:36:43.498Z,11.00
2019-02-03T10:37:43.504Z,13.80
2019-02-03T10:38:43.506Z,14.50
2019-02-03T10:39:43.504Z,13.10
2019-02-03T10:40:43.516Z,12.00
2019-02-03T10:41:43.511Z,11.10
2019-02-03T10:42:43.510Z,12.80
2019-02-03T10:43:43.518Z,13.00
2019-02-03T10:44:43.519Z,16.20
2019-02-03T10:45:43.521Z,12.70
2019-02-03T10:46:43.523Z,15.80
2019-02-03T10:47:43.518Z,13.20
2019-02-03T10:48:43.521Z,12.40
2019-02-03T10:49:46.514Z,10.10
2019-02-03T10:50:43.519Z,13.90
2019-02-03T10:51:43.524Z,9.60
2019-02-03T10:52:43.523Z,11.80
2019-02-03T10:53:43.527Z,11.40
2019-02-03T10:54:43.525Z,10.30
2019-02-03T10:55:43.527Z,9.60
2019-02-03T10:56:43.526Z,11.50
2019-02-03T10:57:43.690Z,13.00
2019-02-03T10:58:43.527Z,11.80
2019-02-03T10:59:43.524Z,12.40
2019-02-03T11:00:43.522Z,11.60
2019-02-03T11:01:43.521Z,14.60
2019-02-03T11:02:43.520Z,12.20
2019-02-03T11:03:43.523Z,11.40
2019-02-03T11:04:43.520Z,11.90
2019-02-03T11:05:43.524Z,11.30
2019-02-03T11:06:43.515Z,13.10
2019-02-03T11:07:43.508Z,12.50
2019-02-03T11:08:43.509Z,13.30
2019-02-03T11:09:43.508Z,11.30
2019-02-03T11:10:43.506Z,10.60
2019-02-03T11:11:43.499Z,12.20
2019-02-03T11:12:43.494Z,12.30
2019-02-03T11:13:43.492Z,15.00
2019-02-03T11:14:43.490Z,12.10
2019-02-03T11:15:43.492Z,11.50
2019-02-03T11:16:43.488Z,14.20
2019-02-03T11:17:43.482Z,14.20
2019-02-03T11:18:43.479Z,13.00
2019-02-03T11:19:43.476Z,13.30
2019-02-03T11:20:43.594Z,11.50
2019-02-03T11:21:43.469Z,8.90
2019-02-03T11:22:43.468Z,10.60
2019-02-03T11:23:43.474Z,11.10
2019-02-03T11:24:43.468Z,9.90
2019-02-03T11:25:43.463Z,9.30
2019-02-03T11:26:43.462Z,11.60
2019-02-03T11:27:43.464Z,10.30
2019-02-03T11:28:43.464Z,11.60
2019-02-03T11:29:43.462Z,9.30
2019-02-03T11:30:43.459Z,10.60
2019-02-03T11:31:43.452Z,9.30
2019-02-03T11:32:43.451Z,7.00
2019-02-03T11:33:43.450Z,8.50
2019-02-03T11:34:43.447Z,9.00
2019-02-03T11:35:43.453Z,9.30
2019-02-03T11:36:43.453Z,11.10
2019-02-03T11:37:43.450Z,9.30
2019-02-03T11:38:43.448Z,7.80
2019-02-03T11:39:43.449Z,8.00
2019-02-03T11:40:43.440Z,8.50
2019-02-03T11:41:49.114Z,6.80
2019-02-03T11:42:43.440Z,12.10
2019-02-03T11:43:43.566Z,8.60
2019-02-03T11:44:43.431Z,14.30
2019-02-03T11:45:43.428Z,7.30
2019-02-03T11:46:43.419Z,9.40
2019-02-03T11:47:43.422Z,8.70
2019-02-03T11:48:43.420Z,8.80
2019-02-03T11:49:43.417Z,9.70
2019-02-03T11:50:43.412Z,7.70
2019-02-03T11:51:43.401Z,7.20
2019-02-03T11:52:43.396Z,9.00
2019-02-03T11:53:43.396Z,7.60
2019-02-03T11:54:43.393Z,10.60
2019-02-03T11:55:43.390Z,8.90
2019-02-03T11:56:43.383Z,12.60
2019-02-03T11:57:43.375Z,8.50
2019-02-03T11:58:43.372Z,8.70
2019-02-03T11:59:43.369Z,9.70
2019-02-03T12:00:43.369Z,7.90
2019-02-03T12:01:43.470Z,16.20
2019-02-03T12:02:43.350Z,11.50
2019-02-03T12:03:43.339Z,12.20
2019-02-03T12:04:43.333Z,12.40
2019-02-03T12:05:43.327Z,12.30
2019-02-03T12:06:43.324Z,11.40
2019-02-03T12:07:43.334Z,13.20
2019-02-03T12:08:43.317Z,10.00
2019-02-03T12:09:43.312Z,10.00
2019-02-03T12:10:43.306Z,11.10
2019-02-03T12:11:43.297Z,9.40
2019-02-03T12:12:43.289Z,8.10
2019-02-03T12:13:43.287Z,11.50
2019-02-03T12:14:43.283Z,10.30
2019-02-03T12:15:43.272Z,15.50
2019-02-03T12:16:43.265Z,7.90
2019-02-03T12:17:43.254Z,9.30
2019-02-03T12:18:43.249Z,16.60
2019-02-03T12:19:43.248Z,8.20
2019-02-03T12:20:43.242Z,11.60
2019-02-03T12:21:43.238Z,7.40
2019-02-03T12:22:43.232Z,8.70
2019-02-03T12:23:43.219Z,6.70
2019-02-03T12:24:43.212Z,10.90
2019-02-03T12:25:43.205Z,7.40
2019-02-03T12:26:43.197Z,11.10
2019-02-03T12:27:43.195Z,7.00
2019-02-03T12:28:43.190Z,6.60
2019-02-03T12:29:43.177Z,6.80
2019-02-03T12:30:43.173Z,7.60
2019-02-03T12:31:43.169Z,8.40
2019-02-03T12:32:43.195Z,12.40
2019-02-03T12:33:43.158Z,10.80
2019-02-03T12:34:43.151Z,10.10
2019-02-03T12:35:43.139Z,6.50
2019-02-03T12:36:43.133Z,9.30
2019-02-03T12:37:43.125Z,8.90
2019-02-03T12:38:43.118Z,9.90
2019-02-03T12:39:43.121Z,11.00
2019-02-03T12:40:43.108Z,7.10
2019-02-03T12:41:43.099Z,9.30
2019-02-03T12:42:43.091Z,11.60
2019-02-03T12:43:43.084Z,9.00